createdAt,value
2019-05-18T00:01:52.898Z,25.67
2019-05-18T00:04:21.793Z,25.67
2019-05-18T00:06:50.604Z,20.03
2019-05-18T00:09:19.399Z,22.83
2019-05-18T00:11:48.301Z,23.23
2019-05-18T00:14:17.102Z,23.63
2019-05-18T00:16:46.011Z,20.63
2019-05-18T00:19:14.906Z,25.40
2019-05-18T00:21:43.798Z,19.77
2019-05-18T00:24:13.056Z,24.90
2019-05-18T00:26:41.867Z,21.70
2019-05-18T00:29:10.737Z,24.80
2019-05-18T00:31:39.867Z,25.27
2019-05-18T00:34:08.689Z,24.40
2019-05-18T00:36:37.773Z,28.20
2019-05-18T00:39:07.135Z,22.10
2019-05-18T00:41:35.942Z,26.83
2019-05-18T00:44:04.816Z,27.30
2019-05-18T00:46:33.644Z,29.53
2019-05-18T00:49:02.526Z,26.57
2019-05-18T00:51:31.401Z,24.57
2019-05-18T00:54:00.255Z,27.93
2019-05-18T00:56:29.354Z,29.40
2019-05-18T00:58:58.212Z,27.57
2019-05-18T01:01:27.038Z,25.33
2019-05-18T01:03:56.241Z,24.03
2019-05-18T01:06:25.119Z,26.13
2019-05-18T01:08:54.057Z,22.43
2019-05-18T01:11:23.004Z,24.47
2019-05-18T01:13:51.879Z,26.87
2019-05-18T01:16:21.340Z,22.00
2019-05-18T01:18:50.140Z,18.83
2019-05-18T01:21:19.037Z,22.43
2019-05-18T01:23:48.209Z,22.17
2019-05-18T01:26:17.097Z,21.83
2019-05-18T01:28:45.921Z,20.77
2019-05-18T01:31:14.803Z,21.80
2019-05-18T01:33:43.616Z,18.63
2019-05-18T01:36:12.504Z,22.53
2019-05-18T01:38:41.367Z,24.50
2019-05-18T01:41:10.307Z,25.13
2019-05-18T01:43:39.198Z,27.17
2019-05-18T01:46:08.095Z,24.80
2019-05-18T01:48:36.925Z,23.87
2019-05-18T01:51:05.792Z,22.33
2019-05-18T01:53:34.674Z,20.07
2019-05-18T01:56:03.805Z,18.93
2019-05-18T01:58:32.692Z,22.33
2019-05-18T02:01:01.538Z,24.30
2019-05-18T02:03:30.474Z,22.53
2019-05-18T02:05:59.441Z,20.10
2019-05-18T02:08:28.664Z,19.70
2019-05-18T02:10:57.476Z,25.13
2019-05-18T02:13:26.365Z,22.70
2019-05-18T02:15:55.162Z,20.67
2019-05-18T02:18:29.189Z,20.00
2019-05-18T02:20:54.510Z,20.57
2019-05-18T02:23:23.388Z,21.10
2019-05-18T02:25:52.548Z,22.57
2019-05-18T02:28:21.605Z,22.77
2019-05-18T02:30:50.528Z,25.13
2019-05-18T02:33:19.666Z,19.97
2019-05-18T02:35:48.547Z,20.37
2019-05-18T02:38:18.073Z,23.60
2019-05-18T02:40:47.219Z,28.50
2019-05-18T02:43:16.236Z,19.73
2019-05-18T02:45:45.088Z,22.93
2019-05-18T02:48:13.911Z,21.53
2019-05-18T02:50:42.854Z,24.23
2019-05-18T02:53:11.740Z,22.47
2019-05-18T02:56:00.438Z,22.37
2019-05-18T02:58:29.594Z,20.77
2019-05-18T03:00:58.493Z,22.20
2019-05-18T03:03:29.452Z,18.83
2019-05-18T03:05:58.459Z,21.10
2019-05-18T03:08:27.339Z,21.30
2019-05-18T03:10:56.475Z,21.83
2019-05-18T03:13:25.445Z,22.17
2019-05-18T03:15:54.306Z,26.50
2019-05-18T03:18:23.261Z,28.13
2019-05-18T03:20:52.149Z,27.40
2019-05-18T03:23:21.033Z,26.07
2019-05-18T03:25:50.211Z,25.40
2019-05-18T03:28:19.089Z,24.40
2019-05-18T03:31:07.272Z,30.20
2019-05-18T03:33:36.444Z,28.00
2019-05-18T03:36:05.253Z,30.47
2019-05-18T03:38:34.144Z,31.53
2019-05-18T03:41:03.327Z,24.90
2019-05-18T03:43:32.571Z,27.40
2019-05-18T03:46:01.450Z,26.77
2019-05-18T03:48:31.493Z,28.50
2019-05-18T03:51:00.384Z,24.67
2019-05-18T03:53:29.268Z,30.40
2019-05-18T03:55:58.155Z,26.93
2019-05-18T03:58:27.012Z,24.20
2019-05-18T04:00:56.147Z,27.40
2019-05-18T04:03:25.026Z,24.77
2019-05-18T04:05:54.289Z,24.03
2019-05-18T04:08:23.439Z,28.07
2019-05-18T04:10:52.773Z,29.30
2019-05-18T04:13:21.644Z,27.20
2019-05-18T04:15:50.475Z,23.40
2019-05-18T04:18:19.346Z,28.50
2019-05-18T04:20:48.271Z,28.70
2019-05-18T04:23:17.209Z,26.27
2019-05-18T04:25:46.085Z,33.07
2019-05-18T04:28:15.428Z,26.23
2019-05-18T04:30:44.237Z,30.37
2019-05-18T04:33:13.254Z,29.00
2019-05-18T04:35:42.293Z,31.90
2019-05-18T04:38:11.437Z,33.03
2019-05-18T04:40:40.324Z,38.00
2019-05-18T04:43:09.404Z,38.97
2019-05-18T04:45:38.494Z,33.33
2019-05-18T04:48:07.397Z,31.83
2019-05-18T04:50:36.637Z,30.90
2019-05-18T04:53:05.798Z,31.10
2019-05-18T04:55:35.034Z,33.60
2019-05-18T04:58:03.958Z,35.93
2019-05-18T05:00:32.850Z,41.37
2019-05-18T05:03:02.866Z,34.47
2019-05-18T05:05:32.134Z,35.00
2019-05-18T05:08:01.583Z,36.47
2019-05-18T05:10:31.796Z,31.60
2019-05-18T05:13:01.219Z,34.20
2019-05-18T05:15:30.815Z,32.80
2019-05-18T05:18:00.325Z,31.80
2019-05-18T05:20:29.490Z,32.63
2019-05-18T05:22:58.980Z,27.10
2019-05-18T05:25:28.220Z,29.93
2019-05-18T05:27:58.203Z,27.33
2019-05-18T05:30:27.661Z,23.20
2019-05-18T05:32:56.668Z,25.37
2019-05-18T05:35:25.492Z,24.07
2019-05-18T05:37:54.449Z,23.73
2019-05-18T05:40:23.623Z,23.57
2019-05-18T05:42:52.792Z,20.00
2019-05-18T05:45:21.700Z,20.30
2019-05-18T05:47:50.530Z,21.10
2019-05-18T05:50:33.007Z,20.50
2019-05-18T05:52:49.987Z,19.87
2019-05-18T05:55:18.968Z,19.53
2019-05-18T05:57:48.296Z,18.87
2019-05-18T06:00:17.357Z,20.50
2019-05-18T06:02:46.272Z,19.77
2019-05-18T06:05:15.327Z,19.90
2019-05-18T06:07:44.618Z,19.43
2019-05-18T06:10:13.496Z,18.50
2019-05-18T06:12:42.454Z,17.40
2019-05-18T06:15:11.465Z,18.33
2019-05-18T06:17:40.363Z,18.03
2019-05-18T06:20:09.202Z,18.03
2019-05-18T06:22:38.321Z,17.97
2019-05-18T06:25:07.525Z,17.37
2019-05-18T06:27:37.063Z,18.03
2019-05-18T06:30:06.253Z,17.10
2019-05-18T06:32:35.389Z,17.03
2019-05-18T06:35:04.375Z,17.50
2019-05-18T06:37:33.276Z,17.13
2019-05-18T06:40:02.741Z,16.67
2019-05-18T06:42:31.746Z,15.60
2019-05-18T06:45:01.051Z,16.00
2019-05-18T06:47:30.030Z,15.60
2019-05-18T06:49:59.442Z,16.13
2019-05-18T06:52:28.450Z,15.40
2019-05-18T06:54:57.514Z,15.80
2019-05-18T06:57:26.848Z,13.73
2019-05-18T06:59:55.713Z,14.80
2019-05-18T07:02:24.795Z,14.40
2019-05-18T07:04:53.616Z,14.80
2019-05-18T07:07:22.803Z,15.97
2019-05-18T07:09:51.622Z,14.27
2019-05-18T07:12:20.880Z,14.40
2019-05-18T07:14:49.771Z,13.57
2019-05-18T07:17:18.593Z,14.10
2019-05-18T07:19:47.748Z,12.87
2019-05-18T07:22:16.557Z,13.90
2019-05-18T07:24:45.556Z,13.20
2019-05-18T07:27:14.714Z,12.23
2019-05-18T07:29:43.588Z,13.10
2019-05-18T07:32:12.417Z,14.00
2019-05-18T07:34:41.590Z,13.73
2019-05-18T07:37:10.488Z,14.70
2019-05-18T07:39:39.586Z,12.60
2019-05-18T07:42:08.413Z,13.77
2019-05-18T07:44:37.269Z,12.33
2019-05-18T07:47:06.687Z,12.00
2019-05-18T07:49:35.505Z,9.93
2019-05-18T07:52:04.393Z,9.53
2019-05-18T07:54:33.212Z,9.03
2019-05-18T07:57:03.501Z,10.60
2019-05-18T07:59:32.704Z,10.10
2019-05-18T08:02:01.714Z,9.83
2019-05-18T08:04:30.691Z,10.07
2019-05-18T08:06:59.949Z,10.67
2019-05-18T08:09:29.261Z,10.90
2019-05-18T08:11:58.489Z,11.20
2019-05-18T08:14:27.580Z,10.90
2019-05-18T08:16:56.466Z,10.23
2019-05-18T08:19:25.641Z,11.00
2019-05-18T08:21:54.674Z,10.73
2019-05-18T08:24:24.256Z,10.43
2019-05-18T08:26:53.457Z,10.73
2019-05-18T08:29:23.932Z,10.20
2019-05-18T08:31:53.084Z,8.53
2019-05-18T08:34:21.968Z,11.77
2019-05-18T08:36:50.773Z,8.97
2019-05-18T08:39:19.780Z,8.50
2019-05-18T08:41:48.932Z,8.37
2019-05-18T08:44:18.144Z,7.87
2019-05-18T08:46:47.379Z,8.70
2019-05-18T08:49:16.460Z,7.77
2019-05-18T08:51:45.281Z,7.17
2019-05-18T08:54:14.149Z,8.17
2019-05-18T08:56:43.340Z,8.10
2019-05-18T08:59:12.514Z,7.13
2019-05-18T09:01:41.513Z,6.67
2019-05-18T09:04:10.415Z,6.93
2019-05-18T09:06:39.745Z,7.73
2019-05-18T09:09:08.993Z,6.73
2019-05-18T09:11:37.883Z,6.10
2019-05-18T09:14:07.151Z,6.80
2019-05-18T09:16:35.972Z,6.20
2019-05-18T09:19:04.806Z,5.77
2019-05-18T09:21:33.677Z,6.43
2019-05-18T09:24:03.851Z,6.23
2019-05-18T09:26:32.729Z,5.93
2019-05-18T09:29:01.854Z,6.07
2019-05-18T09:31:30.824Z,6.27
2019-05-18T09:33:59.721Z,5.60
2019-05-18T09:36:29.276Z,5.13
2019-05-18T09:38:58.120Z,5.20
2019-05-18T09:41:27.137Z,5.00
2019-05-18T09:43:56.038Z,6.20
2019-05-18T09:46:24.945Z,5.87
2019-05-18T09:48:54.886Z,5.00
2019-05-18T09:51:24.108Z,4.93
2019-05-18T09:53:53.873Z,5.33
2019-05-18T09:56:24.306Z,7.33
2019-05-18T09:58:53.250Z,5.30
2019-05-18T10:01:22.213Z,5.33
2019-05-18T10:03:51.336Z,6.47
2019-05-18T10:06:20.233Z,6.53
2019-05-18T10:08:49.135Z,5.07
2019-05-18T10:11:18.109Z,6.00
2019-05-18T10:13:46.964Z,6.40
2019-05-18T10:16:16.036Z,5.13
2019-05-18T10:18:45.014Z,5.70
2019-05-18T10:21:13.888Z,5.53
2019-05-18T10:23:42.705Z,5.60
2019-05-18T10:26:12.232Z,5.60
2019-05-18T10:28:41.316Z,5.80
2019-05-18T10:31:10.337Z,4.90
2019-05-18T10:33:39.148Z,5.40
2019-05-18T10:36:07.947Z,5.07
2019-05-18T10:38:36.761Z,5.77
2019-05-18T10:41:05.725Z,5.80
2019-05-18T10:43:34.616Z,4.63
2019-05-18T10:46:03.504Z,4.20
2019-05-18T10:48:32.303Z,4.17
2019-05-18T10:51:01.118Z,4.20
2019-05-18T10:53:30.220Z,4.20
2019-05-18T10:55:59.470Z,4.70
2019-05-18T10:58:28.388Z,5.07
2019-05-18T11:00:57.281Z,5.20
2019-05-18T11:03:26.147Z,6.07
2019-05-18T11:05:54.984Z,7.43
2019-05-18T11:08:24.148Z,6.20
2019-05-18T11:10:53.057Z,6.63
2019-05-18T11:13:22.501Z,6.13
2019-05-18T11:15:51.641Z,7.10
2019-05-18T11:18:20.881Z,8.47
2019-05-18T11:20:49.851Z,6.40
2019-05-18T11:23:18.900Z,6.60
2019-05-18T11:25:47.852Z,9.10
2019-05-18T11:28:16.711Z,9.80
2019-05-18T11:30:45.604Z,7.03
2019-05-18T11:33:15.083Z,7.53
2019-05-18T11:35:44.181Z,5.83
2019-05-18T11:38:13.373Z,5.93
2019-05-18T11:40:42.789Z,6.10
2019-05-18T11:43:11.660Z,5.80
2019-05-18T11:45:40.965Z,6.20
2019-05-18T11:48:10.013Z,6.70
2019-05-18T11:50:38.885Z,6.00
2019-05-18T11:53:07.784Z,5.67
2019-05-18T12:00:45.225Z,5.90
2019-05-18T12:03:14.496Z,5.33
2019-05-18T12:05:43.336Z,5.30
2019-05-18T12:08:13.936Z,5.97
2019-05-18T12:10:42.754Z,6.27
2019-05-18T12:13:11.797Z,6.13
2019-05-18T12:15:41.024Z,4.43
2019-05-18T12:18:10.275Z,4.90
2019-05-18T12:20:39.244Z,4.27
2019-05-18T12:23:08.993Z,4.50
2019-05-18T12:25:38.048Z,5.67
2019-05-18T12:28:07.020Z,5.60
2019-05-18T12:30:36.129Z,5.00
2019-05-18T12:33:05.366Z,5.00
2019-05-18T12:37:57.599Z,4.80
2019-05-18T12:40:26.509Z,5.73
2019-05-18T12:42:55.896Z,5.20
2019-05-18T12:45:24.893Z,5.10
2019-05-18T12:47:53.849Z,5.37
2019-05-18T12:50:25.319Z,6.07
2019-05-18T12:52:54.223Z,5.50
2019-05-18T12:55:23.121Z,5.90
2019-05-18T12:57:53.569Z,4.73
2019-05-18T13:00:22.706Z,5.20
2019-05-18T13:02:53.422Z,5.97
2019-05-18T13:05:22.706Z,7.40
2019-05-18T13:07:51.645Z,5.00
2019-05-18T13:12:50.057Z,4.83
2019-05-18T13:15:20.818Z,4.90
2019-05-18T13:17:49.683Z,5.57
2019-05-18T13:20:19.514Z,4.57
2019-05-18T13:22:48.464Z,4.57
2019-05-18T13:25:17.567Z,4.93
2019-05-18T13:27:46.600Z,4.10
2019-05-18T13:30:19.550Z,4.33
2019-05-18T13:32:46.270Z,4.23
2019-05-18T13:35:15.700Z,3.60
2019-05-18T13:37:44.604Z,4.30
2019-05-18T13:40:13.561Z,4.13
